Portada
METAR-TAF:

METAR-TAF

Aeroports :

Council Bluffs, Iowa, Estats Units d'Amèrica

latitud: 41-16N, longitud: 095-46W, altitud: 382 m

Observació

L'informe es va fer fa 19 minuts, a les 19:55 UTC
Vent 14 kt del Sud amb ràfegues de 25 kt
Temperatura 29°C
Humitat 74%
Pressió 1005 hPa
Visibilitat: 16.1 km
Núvols disperses a una alçada de 3400 ft
Cel ennuvolat a una alçada de 4300 ft

METAR: KCBF 171955Z AUTO 17014G25KT 10SM SCT034 BKN043 29/24 A2969 RMK AO2

Hora: 15:14 (20:14 UTC)


TAF: manca

Observacions i pronòstics meteorològics de més de 4000 aeroports (METAR i TAF).

Les estacions disponibles són els punts grocs i vermells al mapa.

Posi el ratolí al punt desitjat per veure el nom de l'estació.

Feu clic per veure les observacions i els pronòstics meteorològics.

Per canviar el mapa: feu clic els botons verds amb una creu de color negre per apropar; al botó verd amb un guió per allunyar la imatge; o en les fletxes verdes per a mapes adjacents.


METAR-TAF: